createdAt,value
2018-07-26T00:00:43.867Z,6.30
2018-07-26T00:03:13.000Z,6.33
2018-07-26T00:05:42.189Z,6.00
2018-07-26T00:08:11.392Z,5.87
2018-07-26T00:10:40.540Z,5.93
2018-07-26T00:13:10.175Z,7.00
2018-07-26T00:15:39.361Z,6.20
2018-07-26T00:18:08.558Z,6.50
2018-07-26T00:20:37.742Z,6.80
2018-07-26T00:23:07.185Z,11.57
2018-07-26T00:25:36.328Z,7.43
2018-07-26T00:28:05.697Z,6.57
2018-07-26T00:30:34.940Z,7.73
2018-07-26T00:33:04.180Z,6.53
2018-07-26T00:35:33.376Z,8.77
2018-07-26T00:38:02.557Z,6.63
2018-07-26T00:40:32.238Z,7.63
2018-07-26T00:43:01.462Z,11.03
2018-07-26T00:45:30.667Z,8.13
2018-07-26T00:47:59.808Z,7.40
2018-07-26T00:50:29.007Z,7.77
2018-07-26T00:52:58.153Z,8.20
2018-07-26T00:55:27.309Z,7.50
2018-07-26T00:57:56.666Z,7.40
2018-07-26T01:00:25.818Z,7.47
2018-07-26T01:02:54.997Z,7.70
2018-07-26T01:05:24.179Z,8.03
2018-07-26T01:07:53.329Z,9.00
2018-07-26T01:10:22.493Z,8.23
2018-07-26T01:12:51.726Z,7.60
2018-07-26T01:15:20.882Z,8.45
2018-07-26T01:17:50.955Z,8.20
2018-07-26T01:20:20.297Z,8.60
2018-07-26T01:22:49.467Z,8.60
2018-07-26T01:25:18.616Z,7.62
2018-07-26T01:27:47.923Z,11.43
2018-07-26T01:30:17.112Z,8.87
2018-07-26T01:32:46.286Z,8.50
2018-07-26T01:35:15.532Z,10.78
2018-07-26T01:37:44.700Z,8.70
2018-07-26T01:40:13.886Z,11.10
2018-07-26T01:42:54.040Z,12.23
2018-07-26T01:45:23.208Z,10.37
2018-07-26T01:47:52.379Z,10.93
2018-07-26T01:50:21.585Z,11.70
2018-07-26T01:52:50.721Z,9.47
2018-07-26T01:55:19.891Z,9.00
2018-07-26T01:57:49.089Z,8.37
2018-07-26T02:00:18.261Z,10.20
2018-07-26T02:02:47.409Z,8.87
2018-07-26T02:05:16.723Z,9.50
2018-07-26T02:07:45.933Z,8.67
2018-07-26T02:10:15.097Z,9.33
2018-07-26T02:12:44.266Z,10.43
2018-07-26T02:15:13.422Z,18.90
2018-07-26T02:17:42.623Z,8.50
2018-07-26T02:20:11.837Z,9.50
2018-07-26T02:22:41.077Z,11.30
2018-07-26T02:25:11.363Z,9.40
2018-07-26T02:27:40.554Z,8.90
2018-07-26T02:30:09.817Z,10.23
2018-07-26T02:32:39.009Z,10.07
2018-07-26T02:35:08.397Z,9.03
2018-07-26T02:37:37.686Z,10.28
2018-07-26T02:40:07.024Z,9.93
2018-07-26T02:42:36.708Z,10.97
2018-07-26T02:45:06.116Z,15.63
2018-07-26T02:47:35.326Z,10.10
2018-07-26T02:50:04.567Z,10.57
2018-07-26T02:52:33.804Z,10.40
2018-07-26T02:55:03.023Z,16.67
2018-07-26T02:57:32.529Z,11.00
2018-07-26T03:00:01.665Z,11.37
2018-07-26T03:02:30.813Z,11.13
2018-07-26T03:04:59.996Z,10.27
2018-07-26T03:07:29.172Z,10.60
2018-07-26T03:09:58.356Z,10.03
2018-07-26T03:12:27.769Z,12.40
2018-07-26T03:14:56.951Z,11.17
2018-07-26T03:17:26.130Z,9.57
2018-07-26T03:19:55.322Z,10.70
2018-07-26T03:22:24.513Z,10.27
2018-07-26T03:24:53.735Z,11.83
2018-07-26T03:27:22.953Z,13.10
2018-07-26T03:29:52.120Z,11.17
2018-07-26T03:32:21.230Z,10.93
2018-07-26T03:34:50.504Z,18.10
2018-07-26T03:37:19.652Z,10.28
2018-07-26T03:39:48.875Z,10.78
2018-07-26T03:42:18.129Z,11.30
2018-07-26T03:44:47.317Z,11.50
2018-07-26T03:47:16.491Z,14.57
2018-07-26T03:49:45.665Z,12.20
2018-07-26T03:52:15.353Z,11.40
2018-07-26T03:54:44.521Z,11.13
2018-07-26T03:57:13.747Z,12.70
2018-07-26T03:59:42.906Z,11.40
2018-07-26T04:02:12.166Z,24.57
2018-07-26T04:04:41.332Z,10.10
2018-07-26T04:07:11.489Z,11.60
2018-07-26T04:09:40.665Z,12.27
2018-07-26T04:12:09.888Z,12.27
2018-07-26T04:14:39.038Z,12.03
2018-07-26T04:17:08.399Z,11.67
2018-07-26T04:19:37.567Z,11.43
2018-07-26T04:22:06.956Z,13.13
2018-07-26T04:24:36.151Z,13.10
2018-07-26T04:27:05.389Z,13.00
2018-07-26T04:29:34.534Z,12.73
2018-07-26T04:32:03.775Z,13.03
2018-07-26T04:34:32.938Z,11.87
2018-07-26T04:37:02.114Z,11.87
2018-07-26T04:39:31.238Z,11.47
2018-07-26T04:42:00.436Z,11.50
2018-07-26T04:44:29.593Z,15.33
2018-07-26T04:46:58.767Z,12.77
2018-07-26T04:49:27.972Z,14.85
2018-07-26T04:51:57.159Z,12.23
2018-07-26T04:54:26.320Z,15.50
2018-07-26T04:56:55.513Z,19.73
2018-07-26T04:59:24.655Z,20.00
2018-07-26T05:01:53.821Z,21.60
2018-07-26T05:04:23.017Z,20.27
2018-07-26T05:06:52.259Z,12.03
2018-07-26T05:09:21.423Z,16.47
2018-07-26T05:11:50.612Z,13.00
2018-07-26T05:14:20.212Z,16.77
2018-07-26T05:16:49.385Z,15.03
2018-07-26T05:19:18.579Z,18.00
2018-07-26T05:21:47.762Z,14.10
2018-07-26T05:24:16.928Z,17.20
2018-07-26T05:26:46.150Z,18.50
2018-07-26T05:29:15.364Z,17.85
2018-07-26T05:31:45.869Z,15.73
2018-07-26T05:34:15.065Z,13.37
2018-07-26T05:36:44.310Z,18.10
2018-07-26T05:39:13.487Z,15.07
2018-07-26T05:41:42.721Z,13.73
2018-07-26T05:44:12.012Z,15.33
2018-07-26T05:46:41.194Z,15.07
2018-07-26T05:49:10.407Z,16.13
2018-07-26T05:51:39.624Z,11.23
2018-07-26T05:54:08.840Z,12.90
2018-07-26T05:56:37.974Z,8.70
2018-07-26T05:59:07.168Z,10.27
2018-07-26T06:01:36.394Z,10.23
2018-07-26T06:04:05.669Z,12.63
2018-07-26T06:06:34.871Z,9.37
2018-07-26T06:09:06.717Z,22.50
2018-07-26T06:11:35.907Z,8.50
2018-07-26T06:14:05.484Z,13.17
2018-07-26T06:16:34.641Z,9.27
2018-07-26T06:19:03.869Z,7.43
2018-07-26T06:21:33.075Z,8.07
2018-07-26T06:24:02.704Z,9.37
2018-07-26T06:26:31.910Z,17.20
2018-07-26T06:29:01.056Z,9.27
2018-07-26T06:31:37.708Z,9.05
2018-07-26T06:34:07.517Z,9.93
2018-07-26T06:36:36.671Z,11.73
2018-07-26T06:39:09.386Z,13.63
2018-07-26T06:41:38.606Z,16.80
2018-07-26T06:44:07.819Z,8.77
2018-07-26T06:46:37.175Z,11.60
2018-07-26T06:49:07.270Z,9.37
2018-07-26T06:51:37.038Z,22.13
2018-07-26T06:54:06.242Z,21.03
2018-07-26T06:56:37.037Z,29.03
2018-07-26T06:59:06.493Z,10.97
2018-07-26T07:01:35.734Z,11.90
2018-07-26T07:04:04.912Z,13.07
2018-07-26T07:06:34.136Z,10.07
2018-07-26T07:09:03.564Z,11.97
2018-07-26T07:11:32.789Z,10.10
2018-07-26T07:14:01.946Z,10.80
2018-07-26T07:16:31.298Z,12.13
2018-07-26T07:19:02.029Z,9.70
2018-07-26T07:21:31.294Z,12.13
2018-07-26T07:24:00.413Z,9.20
2018-07-26T07:26:29.548Z,9.83
2018-07-26T07:28:58.687Z,14.03
2018-07-26T07:31:27.948Z,9.70
2018-07-26T07:33:57.217Z,12.30
2018-07-26T07:36:26.389Z,9.70
2018-07-26T07:38:55.590Z,7.87
2018-07-26T07:41:24.738Z,9.00
2018-07-26T07:43:53.914Z,9.37
2018-07-26T07:46:23.117Z,7.90
2018-07-26T07:48:52.265Z,13.90
2018-07-26T07:51:21.414Z,6.83
2018-07-26T07:53:50.603Z,7.47
2018-07-26T07:56:19.727Z,7.10
2018-07-26T07:58:48.864Z,9.20
2018-07-26T08:01:18.120Z,7.50
2018-07-26T08:03:47.295Z,12.53
2018-07-26T08:06:16.471Z,13.13
2018-07-26T08:08:45.638Z,8.40
2018-07-26T08:11:14.823Z,7.47
2018-07-26T08:13:43.921Z,9.93
2018-07-26T08:16:13.073Z,7.00
2018-07-26T08:18:42.229Z,6.73
2018-07-26T08:21:11.682Z,7.43
2018-07-26T08:23:40.856Z,6.27
2018-07-26T08:26:10.031Z,6.00
2018-07-26T08:28:39.157Z,10.10
2018-07-26T08:31:08.433Z,6.30
2018-07-26T08:33:37.612Z,10.10
2018-07-26T08:36:06.847Z,6.67
2018-07-26T08:38:36.029Z,6.40
2018-07-26T08:41:05.254Z,5.97
2018-07-26T08:43:34.501Z,7.37
2018-07-26T08:46:03.669Z,5.80
2018-07-26T08:48:32.830Z,5.58
2018-07-26T08:51:01.981Z,5.80
2018-07-26T08:53:31.182Z,11.77
2018-07-26T08:56:00.369Z,6.30
2018-07-26T08:58:29.959Z,6.22
2018-07-26T09:00:59.155Z,5.10
2018-07-26T09:03:28.378Z,10.70
2018-07-26T09:05:58.437Z,6.80
2018-07-26T09:08:27.615Z,6.70
2018-07-26T09:10:56.906Z,4.93
2018-07-26T09:13:26.163Z,6.08
2018-07-26T09:15:55.284Z,5.47
2018-07-26T09:18:24.445Z,5.40
2018-07-26T09:20:53.648Z,5.73
2018-07-26T09:23:22.827Z,5.60
2018-07-26T09:25:51.982Z,7.40
2018-07-26T09:28:21.152Z,9.53
2018-07-26T09:30:50.369Z,8.48
2018-07-26T09:33:19.629Z,5.17
2018-07-26T09:35:49.426Z,5.20
2018-07-26T09:38:19.506Z,6.33
2018-07-26T09:40:48.671Z,5.73
2018-07-26T09:43:17.829Z,10.25
2018-07-26T09:45:47.045Z,5.73
2018-07-26T09:48:16.209Z,8.10
2018-07-26T09:50:45.342Z,5.80
2018-07-26T09:53:14.504Z,5.60
2018-07-26T09:55:43.661Z,6.73
2018-07-26T09:58:12.902Z,5.90
2018-07-26T10:00:47.345Z,11.50
2018-07-26T10:03:16.490Z,5.80
2018-07-26T10:05:45.626Z,5.93
2018-07-26T10:08:14.820Z,7.57
2018-07-26T10:10:43.943Z,6.30
2018-07-26T10:13:13.089Z,6.60
2018-07-26T10:15:42.245Z,5.70
2018-07-26T10:18:11.420Z,7.50
2018-07-26T10:20:40.575Z,8.43
2018-07-26T10:23:10.237Z,5.80
2018-07-26T10:25:39.382Z,5.20
2018-07-26T10:28:08.593Z,6.57
2018-07-26T10:30:37.845Z,5.73
2018-07-26T10:33:07.269Z,5.97
2018-07-26T10:35:36.496Z,13.27
2018-07-26T10:38:05.669Z,6.13
2018-07-26T10:40:34.820Z,5.60
2018-07-26T10:43:04.003Z,6.87
2018-07-26T10:45:33.262Z,7.23
2018-07-26T10:48:02.401Z,9.67
2018-07-26T10:50:31.544Z,7.03
2018-07-26T10:53:00.678Z,12.03
2018-07-26T10:55:29.845Z,6.63
2018-07-26T10:57:59.018Z,6.13
2018-07-26T11:00:28.315Z,6.70
2018-07-26T11:02:57.496Z,8.00
2018-07-26T11:05:26.711Z,7.87
2018-07-26T11:07:55.881Z,6.80
2018-07-26T11:10:25.085Z,5.80
2018-07-26T11:12:54.628Z,7.80
2018-07-26T11:15:28.737Z,7.30
2018-07-26T11:17:58.093Z,6.13
2018-07-26T11:20:27.241Z,5.53
2018-07-26T11:22:56.674Z,6.57
2018-07-26T11:25:25.876Z,6.42
2018-07-26T11:27:55.626Z,5.50
2018-07-26T11:30:25.113Z,6.87
2018-07-26T11:32:54.366Z,6.57
2018-07-26T11:35:23.482Z,8.78
2018-07-26T11:37:52.779Z,6.93
2018-07-26T11:40:21.894Z,6.43
2018-07-26T11:42:51.129Z,8.80
2018-07-26T11:45:20.370Z,7.55
2018-07-26T11:47:49.536Z,6.80
2018-07-26T11:50:18.764Z,9.87
2018-07-26T11:52:47.988Z,6.40
2018-07-26T11:55:17.169Z,5.93
2018-07-26T11:57:46.433Z,5.90
2018-07-26T12:00:15.636Z,6.90
2018-07-26T12:02:44.786Z,6.53
2018-07-26T12:05:13.980Z,7.50
2018-07-26T12:07:43.249Z,6.50
2018-07-26T12:10:12.441Z,6.87
2018-07-26T12:12:41.661Z,7.87
2018-07-26T12:15:11.413Z,6.50
2018-07-26T12:17:40.636Z,8.30
2018-07-26T12:20:09.814Z,13.77
2018-07-26T12:22:38.979Z,12.90
2018-07-26T12:25:08.441Z,5.50
2018-07-26T12:27:37.576Z,9.43
2018-07-26T12:30:07.337Z,7.30
2018-07-26T12:32:36.813Z,7.73
2018-07-26T12:35:05.970Z,6.93
2018-07-26T12:37:35.205Z,5.63
2018-07-26T12:40:04.873Z,6.57
2018-07-26T12:42:34.051Z,7.13
2018-07-26T12:45:03.233Z,5.67
2018-07-26T12:47:32.489Z,5.90
2018-07-26T12:50:01.614Z,5.47
2018-07-26T12:52:30.769Z,5.67
2018-07-26T12:54:59.943Z,5.67
2018-07-26T12:57:29.074Z,10.23
2018-07-26T12:59:58.237Z,15.73
2018-07-26T13:02:27.489Z,6.60
2018-07-26T13:04:56.637Z,5.37
2018-07-26T13:07:25.820Z,5.42
2018-07-26T13:09:55.006Z,5.50
2018-07-26T13:12:24.295Z,5.17
2018-07-26T13:14:53.501Z,5.27
2018-07-26T13:17:22.588Z,4.93
2018-07-26T13:19:52.196Z,5.23
2018-07-26T13:22:21.378Z,4.50
2018-07-26T13:24:50.985Z,4.43
2018-07-26T13:27:20.192Z,4.70
2018-07-26T13:29:49.370Z,5.00
2018-07-26T13:32:18.557Z,5.37
2018-07-26T13:34:47.780Z,4.70
2018-07-26T13:37:16.982Z,2.70
2018-07-26T13:39:46.963Z,7.40
2018-07-26T13:42:16.193Z,5.80
2018-07-26T13:44:45.446Z,2.97
2018-07-26T13:47:14.624Z,3.37
2018-07-26T13:49:43.863Z,5.80
2018-07-26T13:52:13.046Z,3.47
2018-07-26T13:54:42.289Z,3.60
2018-07-26T13:57:11.818Z,4.90
2018-07-26T13:59:41.116Z,3.93
2018-07-26T14:02:10.309Z,3.60
2018-07-26T14:04:39.429Z,6.73
2018-07-26T14:07:08.875Z,4.77
2018-07-26T14:09:38.096Z,3.90
2018-07-26T14:12:07.345Z,6.37
2018-07-26T14:14:36.535Z,4.47
2018-07-26T14:17:05.907Z,4.03
2018-07-26T14:19:35.028Z,5.90
2018-07-26T14:22:04.376Z,4.93
2018-07-26T14:24:33.588Z,4.30
2018-07-26T14:27:02.735Z,5.17
2018-07-26T14:29:31.971Z,4.20
2018-07-26T14:32:01.076Z,5.20
2018-07-26T14:34:30.218Z,10.10
2018-07-26T14:36:59.400Z,4.50
2018-07-26T14:39:28.533Z,4.83
2018-07-26T14:41:57.721Z,5.23
2018-07-26T14:44:26.875Z,5.10
2018-07-26T14:46:56.158Z,9.20
2018-07-26T14:49:25.299Z,6.33
2018-07-26T14:51:54.518Z,10.37
2018-07-26T14:54:23.579Z,7.30
2018-07-26T14:56:52.734Z,7.23
2018-07-26T14:59:21.904Z,12.83
2018-07-26T15:01:51.044Z,8.30
2018-07-26T15:04:20.358Z,7.73
2018-07-26T15:06:49.537Z,25.63
2018-07-26T15:09:18.659Z,12.73
2018-07-26T15:11:47.991Z,7.47
2018-07-26T15:14:17.593Z,7.80
2018-07-26T15:16:47.096Z,6.83
2018-07-26T15:19:16.225Z,13.13
2018-07-26T15:21:45.433Z,7.07
2018-07-26T15:24:14.617Z,6.97
2018-07-26T15:26:43.806Z,8.90
2018-07-26T15:29:12.969Z,11.60
2018-07-26T15:31:42.101Z,7.20
2018-07-26T15:34:11.257Z,13.67
2018-07-26T15:36:40.399Z,6.57
2018-07-26T15:39:10.494Z,11.00
2018-07-26T15:41:45.525Z,10.93
2018-07-26T15:44:15.945Z,6.67
2018-07-26T15:46:45.108Z,6.93
2018-07-26T15:49:14.287Z,7.20
2018-07-26T15:51:43.434Z,9.23
2018-07-26T15:54:12.588Z,12.33
2018-07-26T15:56:41.811Z,10.00
2018-07-26T15:59:10.956Z,7.80
2018-07-26T16:01:40.133Z,6.60
2018-07-26T16:04:09.373Z,8.20
2018-07-26T16:06:38.521Z,8.43
2018-07-26T16:09:09.850Z,9.90
2018-07-26T16:11:39.286Z,7.40
2018-07-26T16:14:09.169Z,9.37
2018-07-26T16:16:38.373Z,8.27
2018-07-26T16:19:07.703Z,8.43
2018-07-26T16:21:36.852Z,7.93
2018-07-26T16:24:06.069Z,6.90
2018-07-26T16:26:35.246Z,7.37
2018-07-26T16:29:04.537Z,6.83
2018-07-26T16:31:33.752Z,7.37
2018-07-26T16:34:02.974Z,8.00
2018-07-26T16:36:32.123Z,7.57
2018-07-26T16:39:01.261Z,7.80
2018-07-26T16:41:30.455Z,7.43
2018-07-26T16:43:59.624Z,7.90
2018-07-26T16:46:28.782Z,7.43
2018-07-26T16:48:57.954Z,7.20
2018-07-26T16:51:28.065Z,6.97
2018-07-26T16:53:57.305Z,7.93
2018-07-26T16:56:26.524Z,8.13
2018-07-26T16:58:55.763Z,8.10
2018-07-26T17:01:24.828Z,9.17
2018-07-26T17:03:54.009Z,7.40
2018-07-26T17:06:23.179Z,7.67
2018-07-26T17:08:52.325Z,6.57
2018-07-26T17:11:21.508Z,7.33
2018-07-26T17:13:50.707Z,6.60
2018-07-26T17:16:19.940Z,7.23
2018-07-26T17:18:49.188Z,6.90
2018-07-26T17:21:18.340Z,6.58
2018-07-26T17:23:47.494Z,8.77
2018-07-26T17:26:16.653Z,6.33
2018-07-26T17:28:45.836Z,6.80
2018-07-26T17:31:14.964Z,6.90
2018-07-26T17:33:44.161Z,6.70
2018-07-26T17:36:13.396Z,7.87
2018-07-26T17:38:42.564Z,6.83
2018-07-26T17:41:11.867Z,7.40
2018-07-26T17:43:41.012Z,8.70
2018-07-26T17:46:10.149Z,7.50
2018-07-26T17:48:39.303Z,7.23
2018-07-26T17:51:08.649Z,8.00
2018-07-26T17:53:37.744Z,8.40
2018-07-26T17:56:06.960Z,6.63
2018-07-26T17:58:36.161Z,8.00
2018-07-26T18:01:05.397Z,7.97
2018-07-26T18:03:34.566Z,7.67
2018-07-26T18:06:03.793Z,8.43
2018-07-26T18:08:32.924Z,8.20
2018-07-26T18:11:02.101Z,7.47
2018-07-26T18:13:31.593Z,7.90
2018-07-26T18:16:00.735Z,8.97
2018-07-26T18:18:30.012Z,9.60
2018-07-26T18:20:59.137Z,9.47
2018-07-26T18:23:28.280Z,9.63
2018-07-26T18:25:57.625Z,9.73
2018-07-26T18:28:26.758Z,7.87
2018-07-26T18:30:56.012Z,8.90
2018-07-26T18:33:25.224Z,11.38
2018-07-26T18:35:54.420Z,10.47
2018-07-26T18:38:23.626Z,9.93
2018-07-26T18:40:52.731Z,10.27
2018-07-26T18:43:22.186Z,8.23
2018-07-26T18:45:51.290Z,8.37
2018-07-26T18:48:20.452Z,9.53
2018-07-26T18:50:51.201Z,9.67
2018-07-26T18:53:20.398Z,9.47
2018-07-26T18:55:49.612Z,9.47
2018-07-26T18:58:18.951Z,9.73
2018-07-26T19:00:48.072Z,10.67
2018-07-26T19:03:17.257Z,8.60
2018-07-26T19:05:46.545Z,10.10
2018-07-26T19:08:15.746Z,9.63
2018-07-26T19:10:44.958Z,9.90
2018-07-26T19:13:14.137Z,10.37
2018-07-26T19:15:43.257Z,10.30
2018-07-26T19:18:12.407Z,11.33
2018-07-26T19:20:41.596Z,10.13
2018-07-26T19:23:12.208Z,13.22
2018-07-26T19:25:41.394Z,12.53
2018-07-26T19:28:10.526Z,20.90
2018-07-26T19:30:41.246Z,10.67
2018-07-26T19:33:10.501Z,12.23
2018-07-26T19:35:40.659Z,10.80
2018-07-26T19:38:10.359Z,10.08
2018-07-26T19:40:39.622Z,10.80
2018-07-26T19:43:09.114Z,14.63
2018-07-26T19:45:38.236Z,13.23
2018-07-26T19:48:07.589Z,9.53
2018-07-26T19:50:36.813Z,12.30
2018-07-26T19:53:06.036Z,15.05
2018-07-26T19:55:35.426Z,10.60
2018-07-26T19:58:04.576Z,14.07
2018-07-26T20:00:33.877Z,12.00
2018-07-26T20:03:04.954Z,19.10
2018-07-26T20:05:34.139Z,13.33
2018-07-26T20:08:03.330Z,13.40
2018-07-26T20:10:32.503Z,13.30
2018-07-26T20:13:01.682Z,18.33
2018-07-26T20:15:30.910Z,16.60
2018-07-26T20:18:00.116Z,17.23
2018-07-26T20:20:29.326Z,18.50
2018-07-26T20:22:58.550Z,18.00
2018-07-26T20:25:27.749Z,18.40
2018-07-26T20:27:57.009Z,17.75
2018-07-26T20:30:26.197Z,16.97
2018-07-26T20:32:55.408Z,16.07
2018-07-26T20:35:24.544Z,16.90
2018-07-26T20:37:53.760Z,23.17
2018-07-26T20:40:22.949Z,17.23
2018-07-26T20:42:52.122Z,21.73
2018-07-26T20:45:21.293Z,29.43
2018-07-26T20:47:50.456Z,21.17
2018-07-26T20:50:19.760Z,17.70
2018-07-26T20:52:48.932Z,17.80
2018-07-26T20:55:18.117Z,17.40
2018-07-26T20:57:47.268Z,17.20
2018-07-26T21:00:16.962Z,17.83
2018-07-26T21:02:46.913Z,18.33
2018-07-26T21:05:16.886Z,16.45
2018-07-26T21:07:45.993Z,15.60
2018-07-26T21:10:15.148Z,13.37
2018-07-26T21:12:44.292Z,17.80
2018-07-26T21:15:13.482Z,14.87
2018-07-26T21:17:42.615Z,14.20
2018-07-26T21:20:11.798Z,17.83
2018-07-26T21:22:40.971Z,16.70
2018-07-26T21:25:11.105Z,17.32
2018-07-26T21:27:40.269Z,18.30
2018-07-26T21:30:09.797Z,19.17
2018-07-26T21:32:39.002Z,14.97
2018-07-26T21:35:08.871Z,16.13
2018-07-26T21:37:38.022Z,24.82
2018-07-26T21:40:07.794Z,19.53
2018-07-26T21:42:37.171Z,17.50
2018-07-26T21:45:07.059Z,15.97
2018-07-26T21:47:36.254Z,18.62
2018-07-26T21:50:05.728Z,17.83
2018-07-26T21:52:34.897Z,18.13
2018-07-26T21:55:04.137Z,17.37
2018-07-26T21:57:33.297Z,20.23
2018-07-26T22:00:02.445Z,15.80
2018-07-26T22:02:31.741Z,18.40
2018-07-26T22:05:00.789Z,20.23
2018-07-26T22:07:29.944Z,20.20
2018-07-26T22:09:59.228Z,18.37
2018-07-26T22:12:28.389Z,17.50
2018-07-26T22:14:57.554Z,18.80
2018-07-26T22:17:26.725Z,16.60
2018-07-26T22:19:56.320Z,16.87
2018-07-26T22:22:25.648Z,18.90
2018-07-26T22:24:54.971Z,19.53
2018-07-26T22:27:24.113Z,17.00
2018-07-26T22:29:53.282Z,16.63
2018-07-26T22:32:23.410Z,16.57
2018-07-26T22:34:52.585Z,21.63
2018-07-26T22:37:21.752Z,16.93
2018-07-26T22:39:50.993Z,14.63
2018-07-26T22:42:20.145Z,15.07
2018-07-26T22:44:49.311Z,14.83
2018-07-26T22:47:18.481Z,16.75
2018-07-26T22:49:48.026Z,14.77
2018-07-26T22:52:17.185Z,18.93
2018-07-26T22:54:46.333Z,15.93
2018-07-26T22:57:15.591Z,15.20
2018-07-26T22:59:44.728Z,21.70
2018-07-26T23:02:13.908Z,13.73
2018-07-26T23:04:43.068Z,14.37
2018-07-26T23:07:12.244Z,12.73
2018-07-26T23:09:41.497Z,13.80
2018-07-26T23:12:10.656Z,14.87
2018-07-26T23:14:39.795Z,14.20
2018-07-26T23:17:09.185Z,17.17
2018-07-26T23:19:38.289Z,12.93
2018-07-26T23:22:07.585Z,14.03
2018-07-26T23:24:36.721Z,14.53
2018-07-26T23:27:05.980Z,15.28
2018-07-26T23:29:35.178Z,14.10
2018-07-26T23:32:04.362Z,18.63
2018-07-26T23:34:33.661Z,13.60
2018-07-26T23:37:02.814Z,15.30
2018-07-26T23:39:32.031Z,14.33
2018-07-26T23:42:01.186Z,15.43
2018-07-26T23:44:30.372Z,18.53
2018-07-26T23:46:59.601Z,12.77
2018-07-26T23:49:28.747Z,15.55
2018-07-26T23:51:58.267Z,14.90
2018-07-26T23:54:27.458Z,14.00
2018-07-26T23:56:56.616Z,15.23
2018-07-26T23:59:25.783Z,14.37
